Terminal Aerodrome Forecast
Issued by NWS Greer, SC

Home | Current Version | Previous Version | Text Only | Print | Product List | Glossary On
Versions: 1 2 3 4 5 6 7 8 9 10 11 12 13 14 15 16 17 18 19 20 21 22 23 24 25 26 27 28 29 30 31 32 33 34 35 36 37 38 39
000
FTUS42 KGSP 211741 AAB
TAFAVL
TAF AMD
KAVL 211741Z 2118/2218 17005KT P6SM BKN021
     FM212100 16006KT P6SM BKN050
     FM220100 14004KT P6SM OVC015
     FM220400 12004KT P6SM -RA OVC007
     FM220900 15005KT 6SM -RADZ OVC005
     FM221500 17004KT P6SM OVC014=

USA.gov is the U.S. government's official web portal to all federal, state and local government web resources and services.